Weather at Dysinger Airport [CLOSED]

Public forecast

Using degrees Fahrenheit for public forecast. Weather courtesy of forecast.io.

Closest aviation weather report (METAR) to Dysinger Airport

Closest report is Buffalo Niagara International Airport, 13.7 nm (25.5 km) SSW.

2024/05/28 01:54 (retrieved 29 minutes ago)

KBUF 280154Z 23017G29KT 10SM BKN016 OVC033 17/13 A2964 RMK AO2 PK WND 25032/0109 SLP035 T01720133

Closest aviation forecast (TAF) to Dysinger Airport

Forecast is more than 6 hours old.

Closest forecast is Niagara District Airport, 27.0 nm (50.0 km) W.

2024/05/27 20:00 (retrieved 6 hours ago)

TAF CYSN 271940Z 2720/2801 23020G30KT P6SM BKN030 OVC120 TEMPO 2720/2801 BKN020 OVC120 BECMG 2722/2724 23015KT RMK NXT FCST BY 281300Z